KTBN/TBN METAR and TAF weather

Enter ICAO airport designator
Station Type Date Time Source
KTBN METAR 2019/11/22 00:56 UTC NOAA

KTBN 220056Z AUTO 34010G15KT 10SM OVC011 07/05 A3003 RMK AO2 SLP173 T00740050


Station Type Date Time Source
KTBN Decoded METAR 2019/11/22 00:56 UTC NOAA

Fort Leonard Wood, MO, United States (KTBN) 37-44N 092-08W
Nov 21, 2019 - 07:56 PM EST / 2019.11.22 0056 UTC
Wind: from the NNW (340 degrees) at 12 MPH (10 KT) gusting to 17 MPH (15 KT):0
Visibility: 10 mile(s):0
Sky conditions: overcast
Temperature: 45.3 F (7.4 C)
Dew Point: 41.0 F (5.0 C)
Relative Humidity: 84%
Pressure (altimeter): 30.03 in. Hg (1016 hPa)
ob: KTBN 220056Z AUTO 34010G15KT 10SM OVC011 07/05 A3003 RMK AO2 SLP173 T00740050
cycle: 1

Station Type Date Time Source
KTBN TAF UTC NOAA

Error!

Example: see airport list